createdAt,value
2018-12-25T01:19:03.735Z,5.10
2018-12-25T01:21:19.960Z,5.00
2018-12-25T01:23:36.189Z,5.10
2018-12-25T01:25:52.132Z,5.20
2018-12-25T01:28:09.232Z,5.20
2018-12-25T01:32:43.053Z,5.30
2018-12-25T01:37:16.975Z,5.20
2018-12-25T01:39:33.184Z,5.10
2018-12-25T01:41:49.787Z,4.90
2018-12-25T01:44:05.993Z,4.80
2018-12-25T01:46:22.546Z,4.80
2018-12-25T01:48:38.887Z,4.80
2018-12-25T01:50:55.312Z,4.80
2018-12-25T01:53:11.767Z,4.80
2018-12-25T01:55:28.028Z,4.70
2018-12-25T01:57:44.706Z,4.70
2018-12-25T02:00:01.396Z,4.70
2018-12-25T02:02:17.282Z,4.80
2018-12-25T02:04:33.371Z,4.70
2018-12-25T02:06:49.490Z,4.80
2018-12-25T02:09:05.735Z,4.80
2018-12-25T02:11:22.179Z,4.70
2018-12-25T02:13:38.663Z,4.70
2018-12-25T02:18:12.428Z,4.70
2018-12-25T02:20:28.786Z,4.70
2018-12-25T02:22:44.895Z,4.70
2018-12-25T02:25:01.355Z,4.70
2018-12-25T02:27:17.087Z,4.70
2018-12-25T02:29:32.665Z,4.70
2018-12-25T02:31:49.700Z,4.70
2018-12-25T02:34:05.373Z,4.70
2018-12-25T02:36:20.952Z,4.70
2018-12-25T02:38:37.288Z,4.70
2018-12-25T02:40:52.172Z,4.70
2018-12-25T02:43:15.844Z,4.70
2018-12-25T02:45:39.522Z,4.80
2018-12-25T02:48:03.788Z,4.80
2018-12-25T02:50:27.232Z,4.70
2018-12-25T02:55:19.793Z,4.70
2018-12-25T03:00:28.292Z,4.80
2018-12-25T03:05:36.807Z,4.70
2018-12-25T03:08:00.849Z,4.80
2018-12-25T03:12:47.655Z,4.80
2018-12-25T03:15:03.368Z,4.80
2018-12-25T03:17:20.014Z,4.80
2018-12-25T03:19:35.892Z,4.80
2018-12-25T03:21:52.271Z,4.90
2018-12-25T03:24:08.696Z,4.80
2018-12-25T03:26:25.299Z,4.90
2018-12-25T03:28:41.612Z,4.90
2018-12-25T03:30:57.596Z,4.90
2018-12-25T03:33:13.665Z,4.80
2018-12-25T03:35:29.998Z,4.80
2018-12-25T03:37:46.227Z,4.80
2018-12-25T03:40:02.834Z,4.80
2018-12-25T03:42:19.227Z,4.80
2018-12-25T03:44:35.912Z,4.90
2018-12-25T03:46:52.231Z,4.90
2018-12-25T03:49:07.944Z,4.90
2018-12-25T03:51:24.800Z,4.90
2018-12-25T03:53:41.234Z,4.90
2018-12-25T03:55:57.501Z,4.90
2018-12-25T03:58:14.228Z,4.90
2018-12-25T04:00:30.124Z,4.90
2018-12-25T04:02:45.721Z,4.90
2018-12-25T04:05:02.157Z,4.90
2018-12-25T04:07:18.372Z,4.90
2018-12-25T04:09:34.099Z,4.90
2018-12-25T04:11:50.381Z,4.90
2018-12-25T04:14:05.967Z,4.90
2018-12-25T04:16:22.529Z,4.90
2018-12-25T04:18:38.234Z,4.90
2018-12-25T04:20:54.709Z,4.80
2018-12-25T04:23:10.495Z,4.80
2018-12-25T04:25:26.506Z,4.80
2018-12-25T04:27:42.470Z,4.80
2018-12-25T04:29:58.278Z,4.80
2018-12-25T04:32:14.371Z,4.80
2018-12-25T04:34:30.375Z,4.80
2018-12-25T04:36:47.228Z,4.80
2018-12-25T04:39:03.064Z,4.80
2018-12-25T04:43:36.737Z,4.80
2018-12-25T04:45:53.446Z,4.80
2018-12-25T04:48:09.684Z,4.80
2018-12-25T04:50:29.445Z,4.80
2018-12-25T04:52:43.063Z,4.80
2018-12-25T04:54:59.883Z,4.80
2018-12-25T04:57:16.436Z,4.80
2018-12-25T04:59:33.094Z,4.80
2018-12-25T05:01:49.354Z,4.80
2018-12-25T05:04:05.828Z,4.80
2018-12-25T05:06:21.971Z,4.90
2018-12-25T05:08:38.571Z,4.90
2018-12-25T05:10:55.103Z,4.90
2018-12-25T05:13:10.951Z,4.90
2018-12-25T05:15:26.972Z,4.90
2018-12-25T05:17:43.044Z,4.90
2018-12-25T05:19:59.647Z,5.00
2018-12-25T05:22:15.621Z,5.00
2018-12-25T05:24:32.019Z,5.10
2018-12-25T05:26:47.759Z,5.10
2018-12-25T05:29:04.080Z,5.10
2018-12-25T05:31:20.247Z,5.10
2018-12-25T05:33:37.199Z,5.10
2018-12-25T05:35:53.989Z,5.10
2018-12-25T05:38:09.999Z,5.20
2018-12-25T05:40:25.738Z,5.10
2018-12-25T05:42:42.000Z,5.20
2018-12-25T05:44:58.553Z,5.20
2018-12-25T05:47:14.895Z,5.20
2018-12-25T05:51:48.225Z,5.20
2018-12-25T05:54:04.556Z,5.20
2018-12-25T05:56:20.480Z,5.20
2018-12-25T05:58:36.781Z,5.20
2018-12-25T06:03:10.629Z,5.20
2018-12-25T06:05:27.231Z,5.30
2018-12-25T06:07:43.164Z,5.30
2018-12-25T06:09:59.359Z,5.30
2018-12-25T06:12:15.834Z,5.30
2018-12-25T06:14:31.552Z,5.30
2018-12-25T06:16:47.336Z,5.20
2018-12-25T06:19:03.485Z,5.30
2018-12-25T06:21:19.276Z,5.30
2018-12-25T06:23:35.183Z,5.30
2018-12-25T06:25:51.001Z,5.30
2018-12-25T06:28:06.619Z,5.30
2018-12-25T06:30:22.347Z,5.30
2018-12-25T06:32:37.804Z,5.30
2018-12-25T06:34:54.200Z,5.30
2018-12-25T06:37:09.831Z,5.30
2018-12-25T06:39:25.587Z,5.30
2018-12-25T06:41:41.243Z,5.30
2018-12-25T06:43:55.935Z,5.30
2018-12-25T06:46:19.015Z,5.30
2018-12-25T06:48:42.588Z,5.30
2018-12-25T06:51:05.923Z,5.20
2018-12-25T06:53:29.144Z,5.20
2018-12-25T06:55:52.803Z,5.10
2018-12-25T06:58:16.175Z,5.10
2018-12-25T07:03:23.794Z,5.10
2018-12-25T07:06:01.134Z,5.10
2018-12-25T07:08:14.587Z,5.10
2018-12-25T07:10:37.875Z,5.10
2018-12-25T07:13:01.105Z,5.10
2018-12-25T07:15:32.814Z,5.10
2018-12-25T07:17:49.509Z,5.00
2018-12-25T07:20:13.376Z,5.10
2018-12-25T07:22:36.903Z,5.10
2018-12-25T07:25:00.351Z,5.10
2018-12-25T07:27:05.027Z,5.10
2018-12-25T07:31:57.575Z,5.10
2018-12-25T07:34:21.408Z,5.10
2018-12-25T07:36:44.715Z,5.10
2018-12-25T07:41:36.813Z,5.10
2018-12-25T07:44:00.976Z,5.10
2018-12-25T07:46:17.196Z,5.10
2018-12-25T07:48:33.420Z,5.20
2018-12-25T07:50:49.867Z,5.20
2018-12-25T07:53:06.432Z,5.20
2018-12-25T07:55:22.787Z,5.30
2018-12-25T07:57:38.916Z,5.30
2018-12-25T07:59:55.316Z,5.30
2018-12-25T08:02:11.911Z,5.30
2018-12-25T08:04:27.894Z,5.30
2018-12-25T08:06:43.505Z,5.30
2018-12-25T08:09:00.779Z,5.30
2018-12-25T08:11:17.651Z,5.30
2018-12-25T08:13:33.653Z,5.30
2018-12-25T08:15:49.523Z,5.40
2018-12-25T08:18:05.679Z,5.40
2018-12-25T08:20:21.605Z,5.40
2018-12-25T08:22:38.081Z,5.40
2018-12-25T08:24:54.479Z,5.50
2018-12-25T08:27:09.526Z,5.50
2018-12-25T08:34:33.501Z,5.60
2018-12-25T08:36:57.340Z,5.70
2018-12-25T08:39:20.771Z,5.70
2018-12-25T08:41:44.393Z,5.70
2018-12-25T08:44:07.646Z,5.80
2018-12-25T08:49:01.100Z,5.80
2018-12-25T08:51:24.131Z,5.90
2018-12-25T08:53:47.744Z,5.90
2018-12-25T08:56:11.057Z,5.90
2018-12-25T08:58:34.287Z,5.90
2018-12-25T09:03:27.423Z,6.00
2018-12-25T09:05:51.488Z,6.00
2018-12-25T09:10:44.066Z,6.00
2018-12-25T09:13:07.120Z,6.20
2018-12-25T09:18:00.623Z,6.10
2018-12-25T09:20:24.391Z,6.20
2018-12-25T09:25:17.808Z,6.30
2018-12-25T09:27:52.893Z,6.30
2018-12-25T09:30:06.499Z,6.30
2018-12-25T09:32:29.810Z,6.40
2018-12-25T09:34:53.119Z,6.40
2018-12-25T09:37:16.931Z,6.30
2018-12-25T09:39:39.987Z,6.30
2018-12-25T09:42:03.619Z,6.40
2018-12-25T09:44:26.844Z,6.40
2018-12-25T09:49:34.985Z,6.40
2018-12-25T09:57:11.391Z,6.40
2018-12-25T09:59:35.149Z,6.40
2018-12-25T10:01:58.819Z,6.50
2018-12-25T10:04:22.384Z,6.40
2018-12-25T10:09:30.563Z,6.40
2018-12-25T10:11:53.987Z,6.50
2018-12-25T10:14:17.843Z,6.50
2018-12-25T10:19:08.229Z,6.60
2018-12-25T10:21:24.576Z,6.60
2018-12-25T10:23:41.151Z,6.60
2018-12-25T10:25:57.205Z,6.60
2018-12-25T10:28:13.793Z,6.60
2018-12-25T10:30:30.479Z,6.60
2018-12-25T10:32:46.829Z,6.60
2018-12-25T10:35:03.982Z,6.50
2018-12-25T10:37:20.096Z,6.60
2018-12-25T10:39:35.695Z,6.60
2018-12-25T10:41:51.063Z,6.70
2018-12-25T10:44:14.851Z,6.60
2018-12-25T10:46:38.343Z,6.60
2018-12-25T10:51:43.184Z,6.70
2018-12-25T10:53:56.908Z,6.70
2018-12-25T10:58:48.884Z,6.70
2018-12-25T11:01:17.720Z,6.70
2018-12-25T11:03:40.776Z,6.70
2018-12-25T11:06:04.545Z,6.70
2018-12-25T11:10:56.921Z,6.80
2018-12-25T11:13:20.189Z,6.80
2018-12-25T11:15:43.944Z,6.80
2018-12-25T11:18:07.291Z,6.80
2018-12-25T11:20:31.108Z,6.90
2018-12-25T11:22:47.683Z,6.90
2018-12-25T11:25:03.972Z,6.90
2018-12-25T11:27:20.072Z,6.90
2018-12-25T11:29:36.608Z,6.90
2018-12-25T11:31:52.398Z,6.90
2018-12-25T11:34:08.833Z,6.90
2018-12-25T11:36:25.052Z,6.90
2018-12-25T11:38:41.813Z,7.00
2018-12-25T11:40:58.616Z,7.00
2018-12-25T11:43:15.244Z,7.00
2018-12-25T11:45:31.152Z,7.00
2018-12-25T11:50:04.452Z,7.00
2018-12-25T11:52:28.186Z,7.10
2018-12-25T11:54:38.340Z,7.10
2018-12-25T11:56:54.896Z,7.10
2018-12-25T11:59:10.615Z,7.10
2018-12-25T12:01:26.315Z,7.00
2018-12-25T12:03:43.101Z,7.10
2018-12-25T12:05:59.813Z,7.10
2018-12-25T12:08:16.671Z,7.10
2018-12-25T12:10:33.547Z,7.10
2018-12-25T12:12:49.248Z,7.10
2018-12-25T12:15:05.861Z,7.20
2018-12-25T12:17:22.176Z,7.20
2018-12-25T12:19:38.686Z,7.20
2018-12-25T12:21:55.036Z,6.60
2018-12-25T12:24:10.778Z,7.20
2018-12-25T12:26:26.890Z,7.30
2018-12-25T12:28:43.574Z,7.30
2018-12-25T12:31:00.187Z,7.20
2018-12-25T12:33:15.864Z,7.30
2018-12-25T12:35:32.412Z,7.20
2018-12-25T12:37:48.716Z,7.30
2018-12-25T12:40:05.659Z,7.30
2018-12-25T12:42:21.708Z,7.30
2018-12-25T12:44:37.789Z,7.20
2018-12-25T12:46:54.159Z,7.20
2018-12-25T12:49:10.735Z,7.30
2018-12-25T12:51:27.149Z,7.30
2018-12-25T12:53:43.555Z,7.30
2018-12-25T12:55:59.951Z,7.20
2018-12-25T12:58:16.452Z,7.20
2018-12-25T13:00:32.671Z,7.20
2018-12-25T13:02:48.575Z,7.20
2018-12-25T13:05:04.559Z,7.20
2018-12-25T13:07:20.881Z,7.20
2018-12-25T13:09:37.307Z,7.20
2018-12-25T13:11:54.097Z,7.20
2018-12-25T13:14:10.320Z,7.20
2018-12-25T13:16:25.961Z,7.10
2018-12-25T13:18:42.809Z,7.20
2018-12-25T13:20:59.057Z,7.20
2018-12-25T13:23:15.561Z,7.20
2018-12-25T13:25:31.980Z,7.20
2018-12-25T13:27:47.971Z,7.20
2018-12-25T13:30:04.380Z,7.10
2018-12-25T13:32:19.944Z,7.10
2018-12-25T13:34:36.287Z,7.10
2018-12-25T13:36:53.294Z,7.10
2018-12-25T13:39:09.243Z,7.10
2018-12-25T13:41:25.362Z,7.10
2018-12-25T13:43:41.474Z,7.10
2018-12-25T13:45:58.064Z,7.10
2018-12-25T13:48:14.456Z,7.10
2018-12-25T13:50:30.548Z,7.10
2018-12-25T13:52:46.227Z,7.00
2018-12-25T13:55:03.047Z,7.10
2018-12-25T13:57:19.548Z,7.00
2018-12-25T13:59:35.847Z,7.00
2018-12-25T14:01:52.544Z,7.00
2018-12-25T14:04:08.531Z,7.00
2018-12-25T14:06:25.277Z,7.00
2018-12-25T14:08:41.512Z,7.00
2018-12-25T14:10:57.159Z,7.00
2018-12-25T14:13:13.568Z,7.00
2018-12-25T14:17:47.039Z,7.00
2018-12-25T14:20:03.721Z,7.00
2018-12-25T14:22:20.887Z,7.00
2018-12-25T14:27:59.154Z,6.90
2018-12-25T14:30:15.176Z,6.90
2018-12-25T14:32:30.802Z,6.90
2018-12-25T14:34:46.875Z,6.90
2018-12-25T14:37:03.343Z,6.90
2018-12-25T14:39:18.767Z,6.90
2018-12-25T14:41:33.261Z,6.90
2018-12-25T14:44:04.920Z,6.80
2018-12-25T14:46:21.995Z,6.90
2018-12-25T14:48:45.339Z,6.90
2018-12-25T14:51:08.945Z,6.90
2018-12-25T14:53:32.669Z,6.90
2018-12-25T14:55:56.426Z,6.90
2018-12-25T14:58:19.949Z,6.90
2018-12-25T15:00:43.866Z,6.90
2018-12-25T15:03:07.269Z,6.80
2018-12-25T15:05:30.603Z,6.80
2018-12-25T15:07:54.433Z,6.80
2018-12-25T15:10:17.570Z,6.80
2018-12-25T15:12:40.864Z,6.80
2018-12-25T15:17:33.747Z,6.80
2018-12-25T15:19:57.573Z,6.80
2018-12-25T15:24:49.936Z,6.70
2018-12-25T15:29:56.791Z,6.70
2018-12-25T15:32:22.527Z,6.70
2018-12-25T15:34:46.819Z,6.60
2018-12-25T15:42:08.872Z,6.70
2018-12-25T15:44:25.502Z,6.60
2018-12-25T15:46:41.195Z,6.70
2018-12-25T15:48:56.917Z,6.70
2018-12-25T15:51:13.389Z,6.60
2018-12-25T15:53:36.620Z,6.60
2018-12-25T15:55:47.024Z,6.40
2018-12-25T15:58:03.451Z,6.70
2018-12-25T16:00:19.411Z,6.60
2018-12-25T16:05:31.213Z,6.60
2018-12-25T16:07:47.140Z,6.60
2018-12-25T16:10:03.044Z,6.60
2018-12-25T16:12:18.880Z,6.60
2018-12-25T16:14:35.970Z,6.60
2018-12-25T16:19:09.686Z,6.50
2018-12-25T16:21:25.957Z,6.60
2018-12-25T16:23:45.550Z,6.60
2018-12-25T16:26:01.347Z,6.60
2018-12-25T16:28:17.382Z,6.60
2018-12-25T16:30:34.340Z,6.60
2018-12-25T16:33:09.379Z,6.60
2018-12-25T16:35:14.919Z,6.70
2018-12-25T16:37:31.544Z,6.60
2018-12-25T16:39:47.627Z,6.70
2018-12-25T16:42:04.207Z,6.70
2018-12-25T16:44:44.177Z,6.70
2018-12-25T16:46:44.511Z,6.70
2018-12-25T16:49:01.619Z,6.70
2018-12-25T16:51:17.953Z,6.70
2018-12-25T16:53:34.410Z,6.70
2018-12-25T16:55:51.430Z,6.70
2018-12-25T16:58:08.180Z,6.70
2018-12-25T17:00:24.269Z,6.70
2018-12-25T17:02:41.008Z,6.80
2018-12-25T17:04:56.627Z,6.70
2018-12-25T17:07:13.749Z,6.70
2018-12-25T17:09:29.639Z,6.70
2018-12-25T17:11:45.783Z,6.70
2018-12-25T17:14:01.990Z,6.70
2018-12-25T17:16:18.612Z,6.70
2018-12-25T17:18:34.748Z,6.80
2018-12-25T17:20:51.051Z,6.70
2018-12-25T17:23:06.806Z,6.70
2018-12-25T17:25:22.436Z,6.70
2018-12-25T17:27:38.187Z,6.80
2018-12-25T17:29:54.159Z,6.80
2018-12-25T17:32:10.520Z,6.80
2018-12-25T17:34:25.389Z,6.80
2018-12-25T17:36:49.848Z,6.80
2018-12-25T17:39:13.622Z,6.80
2018-12-25T17:46:36.515Z,6.80
2018-12-25T17:51:42.226Z,6.70
2018-12-25T18:01:34.865Z,6.70
2018-12-25T18:06:43.255Z,6.70
2018-12-25T18:19:29.495Z,6.60
2018-12-25T18:21:53.032Z,6.60
2018-12-25T18:29:14.680Z,6.60
2018-12-25T18:31:30.818Z,6.50
2018-12-25T18:33:46.705Z,6.50
2018-12-25T18:36:03.627Z,6.50
2018-12-25T18:38:19.723Z,6.40
2018-12-25T18:40:36.147Z,6.40
2018-12-25T18:42:52.720Z,6.50
2018-12-25T18:45:08.243Z,6.50
2018-12-25T18:47:24.456Z,6.50
2018-12-25T18:49:40.827Z,6.50
2018-12-25T18:51:56.715Z,6.50
2018-12-25T18:54:13.082Z,6.50
2018-12-25T18:56:29.428Z,6.50
2018-12-25T18:58:45.503Z,6.40
2018-12-25T19:01:02.156Z,6.50
2018-12-25T19:03:18.941Z,6.40
2018-12-25T19:05:35.838Z,6.50
2018-12-25T19:07:49.936Z,6.50
2018-12-25T19:12:42.154Z,6.50
2018-12-25T19:15:24.410Z,6.50
2018-12-25T19:25:31.214Z,6.50
2018-12-25T19:27:54.780Z,6.50
2018-12-25T19:30:11.715Z,6.60
2018-12-25T19:32:27.907Z,6.60
2018-12-25T19:34:43.627Z,6.60
2018-12-25T19:36:59.900Z,6.60
2018-12-25T19:39:16.132Z,6.60
2018-12-25T19:41:32.463Z,6.60
2018-12-25T19:43:49.307Z,6.60
2018-12-25T19:46:05.196Z,6.60
2018-12-25T19:48:20.935Z,6.60
2018-12-25T19:50:36.925Z,6.60
2018-12-25T19:52:53.749Z,6.60
2018-12-25T19:55:10.048Z,6.60
2018-12-25T19:57:26.983Z,6.60
2018-12-25T19:59:43.331Z,6.60
2018-12-25T20:01:59.610Z,6.60
2018-12-25T20:04:15.447Z,6.60
2018-12-25T20:06:31.475Z,6.60
2018-12-25T20:08:48.523Z,6.60
2018-12-25T20:11:04.239Z,6.60
2018-12-25T20:13:20.600Z,6.60
2018-12-25T20:15:36.420Z,6.60
2018-12-25T20:17:52.459Z,6.60
2018-12-25T20:20:08.528Z,6.60
2018-12-25T20:22:25.474Z,6.60
2018-12-25T20:24:41.327Z,6.60
2018-12-25T20:26:57.227Z,6.60
2018-12-25T20:29:12.874Z,6.60
2018-12-25T20:31:28.979Z,6.60
2018-12-25T20:33:45.560Z,6.60
2018-12-25T20:36:01.294Z,6.60
2018-12-25T20:38:17.871Z,6.60
2018-12-25T20:40:34.472Z,6.60
2018-12-25T20:42:50.804Z,6.50
2018-12-25T20:45:06.747Z,6.50
2018-12-25T20:47:22.848Z,6.50
2018-12-25T20:49:39.331Z,6.50
2018-12-25T20:51:55.095Z,6.50
2018-12-25T20:54:11.543Z,6.50
2018-12-25T20:56:28.063Z,6.50
2018-12-25T20:58:45.153Z,6.50
2018-12-25T21:01:01.063Z,6.50
2018-12-25T21:03:17.599Z,6.50
2018-12-25T21:13:22.264Z,6.50
2018-12-25T21:15:42.227Z,6.50
2018-12-25T21:18:36.195Z,6.50
2018-12-25T21:21:33.835Z,6.50
2018-12-25T21:24:13.993Z,6.40
2018-12-25T21:26:55.343Z,6.50
2018-12-25T21:28:59.763Z,6.50
2018-12-25T21:31:04.451Z,6.50
2018-12-25T21:33:08.531Z,6.40
2018-12-25T21:35:23.788Z,6.40
2018-12-25T21:37:28.227Z,6.40
2018-12-25T21:39:32.707Z,6.40
2018-12-25T21:41:36.901Z,6.40
2018-12-25T21:43:41.551Z,6.40
2018-12-25T21:45:46.791Z,6.40
2018-12-25T21:47:51.691Z,6.40
2018-12-25T21:49:57.003Z,6.40
2018-12-25T21:52:01.184Z,6.40
2018-12-25T21:54:06.170Z,6.40
2018-12-25T21:56:11.275Z,6.40
2018-12-25T21:58:16.531Z,6.40
2018-12-25T22:00:21.935Z,6.40
2018-12-25T22:02:26.467Z,6.40
2018-12-25T22:04:30.735Z,6.40
2018-12-25T22:06:34.955Z,6.40
2018-12-25T22:08:39.359Z,6.40
2018-12-25T22:10:44.323Z,6.40
2018-12-25T22:12:48.995Z,6.40
2018-12-25T22:14:54.183Z,6.40
2018-12-25T22:16:58.502Z,6.40
2018-12-25T22:19:02.428Z,6.40
2018-12-25T22:21:06.647Z,6.40
2018-12-25T22:23:10.591Z,6.40
2018-12-25T22:25:15.728Z,6.40
2018-12-25T22:27:19.857Z,6.40
2018-12-25T22:29:24.225Z,6.40
2018-12-25T22:31:28.856Z,6.40
2018-12-25T22:33:33.204Z,6.40
2018-12-25T22:35:37.790Z,6.40
2018-12-25T22:37:42.263Z,6.30
2018-12-25T22:39:46.559Z,6.30
2018-12-25T22:41:50.647Z,6.30
2018-12-25T22:43:54.827Z,6.40
2018-12-25T22:45:58.743Z,6.30
2018-12-25T22:48:03.578Z,6.30
2018-12-25T22:50:07.956Z,6.30
2018-12-25T22:52:12.685Z,6.30
2018-12-25T22:54:17.446Z,6.30
2018-12-25T22:56:21.592Z,6.30
2018-12-25T22:58:26.928Z,6.20
2018-12-25T23:00:32.358Z,6.20
2018-12-25T23:02:37.167Z,6.20
2018-12-25T23:04:41.299Z,6.30
2018-12-25T23:06:46.054Z,6.20
2018-12-25T23:08:50.791Z,6.30
2018-12-25T23:10:54.695Z,6.20
2018-12-25T23:12:59.060Z,6.30
2018-12-25T23:15:02.964Z,6.20
2018-12-25T23:17:07.595Z,6.20
2018-12-25T23:19:12.109Z,6.20
2018-12-25T23:21:16.623Z,6.20
2018-12-25T23:23:21.126Z,6.20
2018-12-25T23:25:25.526Z,6.20
2018-12-25T23:27:30.481Z,6.20
2018-12-25T23:29:35.144Z,6.20
2018-12-25T23:31:39.925Z,6.10
2018-12-25T23:33:44.051Z,6.20
2018-12-25T23:35:48.851Z,6.20
2018-12-25T23:37:53.300Z,6.10
2018-12-25T23:39:58.040Z,6.20
2018-12-25T23:42:02.725Z,6.10
2018-12-25T23:44:07.462Z,6.10
2018-12-25T23:46:11.903Z,6.10
2018-12-25T23:48:16.290Z,6.10
2018-12-25T23:50:20.611Z,6.10
2018-12-25T23:52:24.967Z,6.00
2018-12-25T23:54:29.662Z,5.90
2018-12-25T23:56:33.966Z,5.90
2018-12-25T23:58:38.349Z,5.80
